Time;durP1;ratioP1;P1;durP2;ratioP2;P2;SDS_P1;SDS_P2;PMS_P1;PMS_P2;Temp;Humidity;BMP_temperature;BMP_pressure;BME280_temperature;BME280_humidity;BME280_pressure;Samples;Min_cycle;Max_cycle;Signal;HPM_P1;HPM_P2
2022/03/26 00:00:46;;;;;;;0.00;0.00;;;;;;;10.58;54.61;103332.44;5079623;28;20097;-80
2022/03/26 00:03:13;;;;;;;0.10;0.10;;;;;;;10.57;54.48;103331.56;5083661;28;20459;-80
2022/03/26 00:05:39;;;;;;;2.17;0.47;;;;;;;10.57;54.11;103341.28;5081263;28;20033;-80
2022/03/26 00:08:07;;;;;;;0.10;0.10;;;;;;;10.56;54.87;103342.13;5079802;28;20512;-81
2022/03/26 00:10:33;;;;;;;1.05;1.05;;;;;;;10.52;55.08;103331.44;5077601;28;20079;-80
2022/03/26 00:12:59;;;;;;;0.73;0.73;;;;;;;10.49;54.66;103334.06;5079561;28;20026;-80
2022/03/26 00:15:26;;;;;;;0.10;0.10;;;;;;;10.47;54.91;103334.88;5078385;28;20063;-80
2022/03/26 00:17:52;;;;;;;0.10;0.10;;;;;;;10.44;54.79;103337.47;5089150;28;20028;-80
2022/03/26 00:20:18;;;;;;;0.10;0.10;;;;;;;10.41;54.51;103338.28;5066090;28;20029;-81
2022/03/26 00:22:44;;;;;;;0.10;0.10;;;;;;;10.41;54.76;103338.28;5068754;28;20123;-80
2022/03/26 00:25:13;;;;;;;0.28;0.28;;;;;;;10.38;55.10;103337.34;5069664;28;20773;-80
2022/03/26 00:27:39;;;;;;;0.10;0.10;;;;;;;10.38;55.35;103339.97;5069666;28;20459;-79
2022/03/26 00:30:07;;;;;;;0.40;0.40;;;;;;;10.38;54.91;103334.69;5079814;28;20040;-79
2022/03/26 00:32:33;;;;;;;0.13;0.13;;;;;;;10.36;54.98;103340.84;5082060;28;20507;-79
2022/03/26 00:35:00;;;;;;;0.20;0.20;;;;;;;10.36;55.56;103340.84;5066817;28;20047;-80
2022/03/26 00:37:27;;;;;;;0.10;0.10;;;;;;;10.36;55.15;103340.84;5074885;28;20028;-80
2022/03/26 00:39:53;;;;;;;0.10;0.10;;;;;;;10.34;55.46;103347.84;5078927;28;20039;-80
2022/03/26 00:42:20;;;;;;;0.13;0.13;;;;;;;10.31;55.03;103342.47;5061176;28;20079;-79
2022/03/26 00:44:46;;;;;;;0.57;0.57;;;;;;;10.31;55.08;103342.47;5081375;28;20038;-80
2022/03/26 00:47:12;;;;;;;1.65;1.55;;;;;;;10.30;54.62;103350.38;5074070;28;20133;-80
2022/03/26 00:49:38;;;;;;;0.10;0.10;;;;;;;10.27;55.30;103348.56;5064829;28;20024;-80
2022/03/26 00:52:05;;;;;;;0.10;0.10;;;;;;;10.26;54.86;103352.06;5066863;28;20028;-80
2022/03/26 00:54:32;;;;;;;0.10;0.10;;;;;;;10.24;56.06;103347.59;5073399;28;20054;-81
2022/03/26 00:56:59;;;;;;;0.45;0.45;;;;;;;10.22;55.76;103358.19;5082029;28;20516;-79
2022/03/26 00:59:25;;;;;;;0.10;0.10;;;;;;;10.22;56.02;103355.53;5079633;28;20039;-79
2022/03/26 01:01:51;;;;;;;0.10;0.10;;;;;;;10.21;57.41;103351.09;5074880;28;20465;-80
2022/03/26 01:04:18;;;;;;;0.30;0.30;;;;;;;10.18;56.64;103357.22;5075178;28;20093;-79
2022/03/26 01:06:44;;;;;;;0.10;0.10;;;;;;;10.16;57.18;103363.34;5065916;28;20029;-79
2022/03/26 01:09:11;;;;;;;0.52;0.52;;;;;;;10.16;55.96;103355.41;5073610;28;20032;-79
2022/03/26 01:11:37;;;;;;;0.10;0.10;;;;;;;10.15;56.09;103351.84;5081032;28;20043;-78
2022/03/26 01:14:03;;;;;;;0.10;0.10;;;;;;;10.15;55.90;103356.25;5081799;28;20090;-80
2022/03/26 01:16:30;;;;;;;0.10;0.10;;;;;;;10.12;57.03;103351.78;5090509;28;20028;-80
2022/03/26 01:18:56;;;;;;;0.10;0.10;;;;;;;10.11;56.56;103351.75;5067041;28;20024;-78
2022/03/26 01:21:23;;;;;;;0.10;0.10;;;;;;;10.10;56.67;103348.19;5071926;28;20111;-79
2022/03/26 01:23:50;;;;;;;0.30;0.30;;;;;;;10.11;56.30;103349.97;5078422;28;20512;-80
2022/03/26 01:26:17;;;;;;;0.75;0.75;;;;;;;10.10;57.07;103347.31;5085928;28;20036;-80
2022/03/26 01:28:44;;;;;;;0.10;0.10;;;;;;;10.11;56.45;103343.81;5072828;28;20059;-80
2022/03/26 01:31:10;;;;;;;0.10;0.10;;;;;;;10.11;57.33;103347.34;5074924;28;20028;-81
2022/03/26 01:33:37;;;;;;;0.40;0.40;;;;;;;10.10;57.72;103339.38;5069448;28;20041;-79
2022/03/26 01:36:04;;;;;;;0.10;0.10;;;;;;;10.08;57.43;103349.94;5068725;28;20058;-79
2022/03/26 01:38:30;;;;;;;0.38;0.38;;;;;;;10.08;56.46;103341.06;5082490;28;20033;-79
2022/03/26 01:40:56;;;;;;;0.10;0.10;;;;;;;10.05;56.39;103344.56;5082840;28;20024;-80
2022/03/26 01:43:23;;;;;;;1.88;0.90;;;;;;;10.04;56.99;103343.66;5070707;28;20036;-80
2022/03/26 01:45:49;;;;;;;0.10;0.10;;;;;;;10.03;57.54;103340.97;5077996;28;20036;-79
2022/03/26 01:48:15;;;;;;;0.03;0.03;;;;;;;10.00;58.47;103349.72;5071579;28;20032;-80
2022/03/26 01:50:42;;;;;;;0.10;0.10;;;;;;;9.99;56.69;103345.31;5070902;28;20498;-78
2022/03/26 01:53:08;;;;;;;0.20;0.20;;;;;;;9.98;57.84;103334.66;5085177;28;20082;-80
2022/03/26 01:55:35;;;;;;;0.95;0.75;;;;;;;9.97;57.95;103339.09;5083244;28;20063;-78
2022/03/26 01:58:02;;;;;;;0.10;0.10;;;;;;;9.95;57.52;103340.78;5086243;28;20037;-78
2022/03/26 02:00:30;;;;;;;0.40;0.40;;;;;;;9.97;57.63;103340.81;5081298;28;20114;-80
2022/03/26 02:02:58;;;;;;;0.38;0.38;;;;;;;9.93;58.59;103337.25;5085606;28;20029;-79
2022/03/26 02:05:25;;;;;;;0.10;0.10;;;;;;;9.93;58.29;103339.88;5088601;28;20024;-79
2022/03/26 02:07:51;;;;;;;0.32;0.32;;;;;;;9.92;57.82;103332.78;5074941;28;20052;-80
2022/03/26 02:10:19;;;;;;;0.20;0.20;;;;;;;9.92;57.80;103337.19;5068393;28;20559;-80
2022/03/26 02:12:46;;;;;;;0.10;0.10;;;;;;;9.89;57.51;103332.72;5075007;28;20043;-79
2022/03/26 02:15:14;;;;;;;0.10;0.10;;;;;;;9.87;57.52;103334.44;5085551;28;20062;-78
2022/03/26 02:17:40;;;;;;;0.32;0.32;;;;;;;9.84;56.99;103332.63;5079132;28;20024;-80
2022/03/26 02:20:09;;;;;;;0.55;0.55;;;;;;;9.84;56.52;103339.66;5064136;28;20116;-79
2022/03/26 02:22:36;;;;;;;0.10;0.10;;;;;;;9.79;57.93;103331.59;5070014;28;20060;-80
2022/03/26 02:25:03;;;;;;;0.10;0.10;;;;;;;9.77;56.69;103329.78;5083385;28;20028;-80
2022/03/26 02:27:30;;;;;;;0.10;0.10;;;;;;;9.74;57.29;103333.25;5065438;28;20444;-80
2022/03/26 02:29:57;;;;;;;0.10;0.10;;;;;;;9.71;57.63;103328.78;5067527;28;20025;-80
2022/03/26 02:32:26;;;;;;;0.55;0.55;;;;;;;9.71;57.13;103331.44;5075196;28;20068;-79
2022/03/26 02:34:54;;;;;;;0.47;0.47;;;;;;;9.71;58.28;103322.59;5068012;28;20121;-80
2022/03/26 02:37:20;;;;;;;0.35;0.35;;;;;;;9.71;57.34;103326.13;5071243;28;20482;-79
2022/03/26 02:39:47;;;;;;;0.10;0.10;;;;;;;9.71;57.59;103328.78;5060788;28;20487;-79
2022/03/26 02:42:15;;;;;;;0.10;0.10;;;;;;;9.71;57.88;103323.47;5077099;28;20028;-79
2022/03/26 02:44:42;;;;;;;0.63;0.63;;;;;;;9.70;57.53;103331.41;5075626;28;20106;-79
2022/03/26 02:47:09;;;;;;;1.13;1.05;;;;;;;9.68;57.74;103326.06;5075417;28;20555;-79
2022/03/26 02:49:36;;;;;;;0.15;0.15;;;;;;;9.66;57.45;103325.13;5066047;28;20033;-80
2022/03/26 02:52:02;;;;;;;0.10;0.10;;;;;;;9.66;57.31;103322.47;5070120;28;20050;-80
2022/03/26 02:54:28;;;;;;;0.10;0.10;;;;;;;9.65;58.37;103326.00;5070539;28;20584;-79
2022/03/26 02:56:54;;;;;;;0.10;0.10;;;;;;;9.64;57.88;103318.91;5067929;28;20031;-78
2022/03/26 02:59:21;;;;;;;0.20;0.20;;;;;;;9.64;57.89;103326.84;5066059;28;20040;-79
2022/03/26 03:01:48;;;;;;;0.63;0.63;;;;;;;9.64;58.24;103325.97;5062115;28;20510;-80
2022/03/26 03:04:14;;;;;;;0.47;0.47;;;;;;;9.62;57.85;103323.28;5075311;28;20032;-80
2022/03/26 03:06:40;;;;;;;0.10;0.10;;;;;;;9.59;56.92;103323.19;5077064;28;20107;-79
2022/03/26 03:09:07;;;;;;;0.32;0.32;;;;;;;9.59;57.10;103323.19;5061180;28;20128;-79
2022/03/26 03:11:35;;;;;;;0.22;0.22;;;;;;;9.55;58.25;103323.97;5066586;28;20547;-79
2022/03/26 03:14:03;;;;;;;0.20;0.20;;;;;;;9.53;58.77;103317.75;5068610;28;20397;-79
2022/03/26 03:16:29;;;;;;;0.10;0.10;;;;;;;9.61;58.43;103320.56;5063323;28;20103;-79
2022/03/26 03:18:56;;;;;;;0.00;0.00;;;;;;;9.64;58.22;103316.25;5062429;28;20028;-80
2022/03/26 03:21:22;;;;;;;0.28;0.28;;;;;;;9.64;57.71;103318.91;5077659;28;20040;-80
2022/03/26 03:23:48;;;;;;;0.68;0.68;;;;;;;9.63;58.31;103317.13;5081347;28;20039;-80
2022/03/26 03:26:15;;;;;;;0.15;0.15;;;;;;;9.62;57.59;103331.22;5074593;28;20060;-80
2022/03/26 03:28:42;;;;;;;0.10;0.10;;;;;;;9.61;57.28;103324.13;5079787;28;20456;-80
2022/03/26 03:31:09;;;;;;;0.20;0.20;;;;;;;9.60;58.12;103322.34;5079612;28;20028;-80
2022/03/26 03:33:36;;;;;;;0.30;0.30;;;;;;;9.59;57.63;103323.19;5074581;28;20089;-81
2022/03/26 03:36:02;;;;;;;0.10;0.10;;;;;;;9.58;57.50;103324.03;5072453;28;20461;-80
2022/03/26 03:38:29;;;;;;;0.32;0.32;;;;;;;9.56;58.15;103328.44;5084369;28;20028;-84
2022/03/26 03:40:55;;;;;;;9.02;1.00;;;;;;;9.54;57.66;103323.09;5074846;28;20296;-83
2022/03/26 03:43:22;;;;;;;0.10;0.10;;;;;;;9.53;56.92;103323.03;5071282;28;20025;-82
2022/03/26 03:45:49;;;;;;;0.15;0.15;;;;;;;9.52;59.15;103327.44;5090735;28;20033;-81
2022/03/26 03:48:15;;;;;;;0.90;0.90;;;;;;;9.50;59.29;103325.63;5070438;28;20032;-82
2022/03/26 03:50:42;;;;;;;0.20;0.20;;;;;;;9.50;58.25;103334.44;5063211;28;20040;-81
2022/03/26 03:53:08;;;;;;;0.10;0.10;;;;;;;9.50;58.32;103329.16;5077574;28;20055;-82
2022/03/26 03:55:34;;;;;;;0.28;0.28;;;;;;;9.50;57.97;103328.28;5078249;28;20059;-82
2022/03/26 03:58:00;;;;;;;0.30;0.30;;;;;;;9.49;58.21;103334.41;5073536;28;20405;-84
2022/03/26 04:00:27;;;;;;;0.52;0.52;;;;;;;9.48;57.32;103332.63;5067766;28;20375;-82
2022/03/26 04:02:54;;;;;;;0.20;0.20;;;;;;;9.46;57.51;103331.69;5068816;28;20029;-83
2022/03/26 04:05:21;;;;;;;0.47;0.47;;;;;;;9.44;57.15;103336.06;5071231;28;20455;-81
2022/03/26 04:07:47;;;;;;;0.10;0.10;;;;;;;9.42;57.45;103332.47;5075774;28;20036;-81
2022/03/26 04:10:14;;;;;;;0.10;0.10;;;;;;;9.40;57.68;103329.78;5086320;28;20107;-82
2022/03/26 04:12:42;;;;;;;1.25;1.25;;;;;;;9.39;57.63;103336.84;5075868;28;20028;-83
2022/03/26 04:15:10;;;;;;;0.20;0.20;;;;;;;9.38;57.46;103337.72;5076155;28;20032;-82
2022/03/26 04:17:37;;;;;;;0.80;0.80;;;;;;;9.37;57.66;103330.63;5077854;28;20486;-84
2022/03/26 04:20:08;;;;;;;0.10;0.10;;;;;;;9.36;58.16;103328.81;5070473;28;20029;-84
2022/03/26 04:22:35;;;;;;;0.52;0.52;;;;;;;9.37;57.63;103329.69;5081691;28;20032;-83
2022/03/26 04:25:05;;;;;;;0.10;0.10;;;;;;;9.34;58.49;103333.16;5096032;28;20084;-83
2022/03/26 04:27:31;;;;;;;0.10;0.10;;;;;;;9.34;58.36;103338.47;5075440;28;20039;-83
2022/03/26 04:29:58;;;;;;;0.20;0.20;;;;;;;9.33;58.06;103331.41;5083114;28;20032;-84
2022/03/26 04:32:24;;;;;;;1.10;1.00;;;;;;;9.31;57.93;103342.78;5080869;28;20033;-83
2022/03/26 04:34:50;;;;;;;0.10;0.10;;;;;;;9.28;58.38;103340.94;5075037;28;20662;-83
2022/03/26 04:37:17;;;;;;;0.43;0.43;;;;;;;9.27;58.42;103341.84;5074563;28;20055;-84
2022/03/26 04:39:43;;;;;;;0.38;0.38;;;;;;;9.26;57.78;103342.69;5070113;28;20032;-82
2022/03/26 04:42:09;;;;;;;0.17;0.17;;;;;;;9.26;58.85;103345.31;5070021;28;20115;-83
2022/03/26 04:44:36;;;;;;;0.15;0.15;;;;;;;9.28;58.04;103345.34;5068117;28;20032;-83
2022/03/26 04:47:02;;;;;;;0.63;0.63;;;;;;;9.25;59.86;103343.53;5069886;28;20440;-83
2022/03/26 04:49:31;;;;;;;0.10;0.10;;;;;;;9.28;59.02;103348.00;5067291;28;20025;-83
2022/03/26 04:51:58;;;;;;;0.77;0.75;;;;;;;9.24;58.30;103352.31;5084108;28;20044;-83
2022/03/26 04:54:24;;;;;;;0.57;0.57;;;;;;;9.24;58.18;103352.31;5084752;28;20017;-83
2022/03/26 04:56:51;;;;;;;0.57;0.57;;;;;;;9.22;57.86;103343.44;5085457;28;20047;-83
2022/03/26 04:59:17;;;;;;;0.03;0.03;;;;;;;9.21;58.40;103353.13;5083329;28;20029;-84
2022/03/26 05:01:44;;;;;;;0.10;0.10;;;;;;;9.22;58.39;103346.06;5065080;28;20592;-84
2022/03/26 05:04:11;;;;;;;0.10;0.10;;;;;;;9.22;58.18;103348.72;5077748;28;20040;-82
2022/03/26 05:06:37;;;;;;;0.10;0.10;;;;;;;9.23;58.94;103345.22;5075000;28;20056;-84
2022/03/26 05:09:03;;;;;;;0.28;0.28;;;;;;;9.23;58.57;103339.94;5074218;28;20036;-83
2022/03/26 05:11:29;;;;;;;0.10;0.10;;;;;;;9.22;58.85;103343.44;5085844;28;20024;-83
2022/03/26 05:13:57;;;;;;;0.10;0.10;;;;;;;9.20;58.13;103339.88;5075519;28;20037;-82
2022/03/26 05:16:23;;;;;;;0.73;0.73;;;;;;;9.19;58.16;103338.09;5085867;28;20029;-84
2022/03/26 05:18:49;;;;;;;0.57;0.40;;;;;;;9.19;58.16;103343.38;5068633;28;20116;-81
2022/03/26 05:21:15;;;;;;;0.10;0.10;;;;;;;9.17;58.02;103338.06;5076837;28;20101;-82
2022/03/26 05:23:41;;;;;;;1.08;1.08;;;;;;;9.18;59.00;103344.22;5131700;22;20040;-83
2022/03/26 05:26:07;;;;;;;0.15;0.15;;;;;;;9.17;58.52;103346.00;5109231;28;20028;-84
2022/03/26 05:28:34;;;;;;;0.20;0.20;;;;;;;9.19;58.70;103348.66;5114384;28;20023;-84
2022/03/26 05:31:01;;;;;;;0.10;0.10;;;;;;;9.19;58.49;103351.31;5113208;28;20019;-84
2022/03/26 05:33:27;;;;;;;0.20;0.20;;;;;;;9.17;58.25;103347.72;5106061;28;20061;-84
2022/03/26 05:35:53;;;;;;;0.10;0.10;;;;;;;9.16;58.34;103349.47;5096726;28;20035;-84
2022/03/26 05:38:19;;;;;;;0.10;0.10;;;;;;;9.15;58.19;103342.41;5100280;28;20028;-84
2022/03/26 05:40:45;;;;;;;0.20;0.20;;;;;;;9.16;57.83;103349.47;5091028;28;20379;-84
2022/03/26 05:43:11;;;;;;;0.10;0.10;;;;;;;9.16;58.44;103344.19;5106697;28;20490;-84
2022/03/26 05:45:37;;;;;;;0.10;0.10;;;;;;;9.17;58.84;103351.28;5091954;28;20034;-84
2022/03/26 05:48:06;;;;;;;0.10;0.10;;;;;;;9.19;58.33;103348.66;5090224;28;20089;-83
2022/03/26 05:50:34;;;;;;;0.10;0.10;;;;;;;9.21;59.15;103362.84;5090642;28;20030;-83
2022/03/26 05:53:03;;;;;;;3.60;0.47;;;;;;;9.23;58.46;103361.09;5096723;28;20032;-84
2022/03/26 05:55:29;;;;;;;2.10;0.50;;;;;;;9.25;58.51;103359.41;5094833;28;20089;-84
2022/03/26 05:57:55;;;;;;;2.53;0.95;;;;;;;9.28;58.39;103364.75;5097229;28;20076;-84
2022/03/26 06:00:21;;;;;;;0.10;0.10;;;;;;;9.28;58.68;103366.53;5098812;28;20028;-84
2022/03/26 06:02:47;;;;;;;0.38;0.38;;;;;;;9.28;58.14;103370.06;5096507;28;20032;-84
2022/03/26 06:05:14;;;;;;;0.10;0.10;;;;;;;9.29;57.53;103370.97;5097014;28;20028;-84
2022/03/26 06:07:40;;;;;;;0.13;0.13;;;;;;;9.28;57.63;103361.22;5101194;28;20082;-84
2022/03/26 06:10:07;;;;;;;0.10;0.10;;;;;;;9.27;57.61;103370.94;5094413;28;20411;-84
2022/03/26 06:12:35;;;;;;;0.10;0.10;;;;;;;9.27;57.80;103368.28;5095220;28;20118;-84
2022/03/26 06:15:03;;;;;;;0.10;0.10;;;;;;;9.27;57.83;103370.94;5087785;28;20020;-83
2022/03/26 06:17:29;;;;;;;0.10;0.10;;;;;;;9.28;57.68;103378.00;5095838;28;20030;-84
2022/03/26 06:19:55;;;;;;;0.10;0.10;;;;;;;9.30;58.38;103371.00;5097782;28;20157;-84
2022/03/26 06:22:21;;;;;;;0.95;0.95;;;;;;;9.32;57.94;103371.94;5097352;28;20043;-84
2022/03/26 06:24:47;;;;;;;0.15;0.15;;;;;;;9.34;58.53;103372.84;5096479;28;20028;-84
2022/03/26 06:27:15;;;;;;;0.95;0.95;;;;;;;9.34;58.90;103375.50;5095092;28;20078;-84
2022/03/26 06:29:41;;;;;;;0.60;0.20;;;;;;;9.37;58.23;103377.34;5082885;28;20415;-83
2022/03/26 06:32:08;;;;;;;0.10;0.10;;;;;;;9.39;58.27;103373.91;5085341;28;20435;-83
2022/03/26 06:34:34;;;;;;;0.30;0.30;;;;;;;9.44;58.75;103381.03;5094759;28;20030;-84
2022/03/26 06:37:00;;;;;;;0.20;0.20;;;;;;;9.51;58.74;103383.00;5100276;28;20035;-83
2022/03/26 06:39:29;;;;;;;1.77;1.65;;;;;;;9.57;58.71;103371.66;5102403;28;20574;-84
2022/03/26 06:41:55;;;;;;;0.40;0.40;;;;;;;9.65;58.46;103381.56;5101041;28;20035;-84
2022/03/26 06:44:21;;;;;;;0.15;0.15;;;;;;;9.70;59.01;103385.22;5085344;28;20024;-84
2022/03/26 06:46:47;;;;;;;0.10;0.10;;;;;;;9.73;58.50;103384.41;5092592;28;20067;-84
2022/03/26 06:49:13;;;;;;;0.40;0.40;;;;;;;9.80;58.61;103382.81;5091959;28;20039;-84
2022/03/26 06:51:39;;;;;;;0.10;0.10;;;;;;;9.85;58.71;103378.53;5082789;28;20040;-84
2022/03/26 06:54:06;;;;;;;0.80;0.80;;;;;;;9.92;58.17;103383.13;5086878;28;20031;-85
2022/03/26 06:56:33;;;;;;;0.10;0.10;;;;;;;9.99;58.66;103385.06;5082919;28;20107;-84
2022/03/26 06:58:59;;;;;;;0.43;0.43;;;;;;;10.04;58.33;103386.06;5105544;28;20059;-85
2022/03/26 07:01:25;;;;;;;0.10;0.10;;;;;;;10.12;59.18;103386.22;5089056;28;20040;-84
2022/03/26 07:03:52;;;;;;;0.52;0.45;;;;;;;10.18;58.50;103378.41;5088796;28;20039;-84
2022/03/26 07:06:19;;;;;;;0.80;0.47;;;;;;;10.25;58.78;103389.16;5096880;28;20406;-84
2022/03/26 07:08:46;;;;;;;0.95;0.95;;;;;;;10.31;58.32;103390.16;5105380;28;20036;-84
2022/03/26 07:11:12;;;;;;;0.10;0.10;;;;;;;10.36;58.67;103388.53;5108408;28;20031;-84
2022/03/26 07:13:38;;;;;;;1.67;1.58;;;;;;;10.45;58.17;103400.22;5098793;28;20033;-84
2022/03/26 07:16:04;;;;;;;0.35;0.35;;;;;;;10.51;58.38;103397.69;5105890;28;20023;-84
2022/03/26 07:18:30;;;;;;;0.30;0.30;;;;;;;10.59;58.30;103400.50;5105461;28;20037;-84
2022/03/26 07:21:00;;;;;;;0.00;0.00;;;;;;;10.65;58.42;103403.28;5098707;28;20044;-84
2022/03/26 07:23:26;;;;;;;0.03;0.03;;;;;;;10.73;57.61;103408.75;5088956;28;21133;-85
2022/03/26 07:25:53;;;;;;;0.30;0.30;;;;;;;10.78;57.90;103401.75;5095769;28;20119;-85
2022/03/26 07:28:20;;;;;;;0.60;0.60;;;;;;;10.84;57.52;103407.19;5100580;28;20050;-84
2022/03/26 07:30:47;;;;;;;1.15;1.15;;;;;;;10.93;57.31;103402.09;5096496;28;20032;-88
2022/03/26 07:33:13;;;;;;;0.17;0.17;;;;;;;11.00;56.90;103411.97;5096799;28;20119;-84
2022/03/26 07:35:45;;;;;;;0.10;0.10;;;;;;;11.11;57.29;103408.63;5095889;28;20032;-86
2022/03/26 07:38:15;;;;;;;0.10;0.10;;;;;;;11.15;57.61;103411.38;5090426;28;20110;-86
2022/03/26 07:40:53;;;;;;;1.13;1.05;;;;;;;11.27;57.04;103417.75;5089546;28;20054;-85
2022/03/26 07:43:19;;;;;;;0.10;0.10;;;;;;;11.29;57.65;103421.31;5099492;28;20046;-85
2022/03/26 07:45:45;;;;;;;0.20;0.20;;;;;;;11.38;56.90;103420.63;5106967;28;20027;-85
2022/03/26 07:48:11;;;;;;;0.22;0.22;;;;;;;11.43;57.60;103429.56;5110830;28;20111;-86
2022/03/26 07:50:37;;;;;;;3.40;1.05;;;;;;;11.51;57.39;103422.59;5090971;28;20031;-84
2022/03/26 07:53:25;;;;;;;1.08;0.77;;;;;;;11.64;56.98;103424.63;5092986;28;20457;-85
2022/03/26 07:56:02;;;;;;;1.40;0.77;;;;;;;11.70;56.80;103425.56;5095455;28;20032;-85
2022/03/26 07:58:43;;;;;;;3.92;2.05;;;;;;;11.80;56.87;103430.16;5100958;28;20054;-85
2022/03/26 08:01:12;;;;;;;1.08;1.08;;;;;;;11.87;56.76;103429.41;5097542;28;20044;-85
2022/03/26 08:03:44;;;;;;;0.20;0.20;;;;;;;11.94;56.46;103436.59;5095112;28;20551;-85
2022/03/26 08:06:21;;;;;;;0.25;0.25;;;;;;;12.00;56.69;103442.91;5096967;28;20063;-86
2022/03/26 08:08:48;;;;;;;0.95;0.95;;;;;;;12.06;56.97;103440.34;5094601;28;20521;-86
2022/03/26 08:11:17;;;;;;;3.00;0.82;;;;;;;12.14;57.53;103439.59;5085922;28;20089;-85
2022/03/26 08:13:43;;;;;;;0.25;0.25;;;;;;;12.20;56.83;103452.09;5095819;28;20031;-83
2022/03/26 08:16:10;;;;;;;0.65;0.65;;;;;;;12.30;56.34;103454.03;5096706;28;20055;-85
2022/03/26 08:18:40;;;;;;;0.10;0.10;;;;;;;12.38;56.26;103456.78;5090309;28;20028;-85
2022/03/26 08:21:15;;;;;;;0.63;0.57;;;;;;;12.48;56.06;103452.50;5089573;28;20406;-86
2022/03/26 08:23:48;;;;;;;0.47;0.40;;;;;;;12.62;55.38;103456.25;5090602;28;20024;-86
2022/03/26 08:26:22;;;;;;;0.52;0.52;;;;;;;12.68;55.20;103450.09;5087002;28;20479;-86
2022/03/26 08:28:50;;;;;;;1.98;1.88;;;;;;;12.76;55.21;103453.75;5091412;28;20027;-87
2022/03/26 08:31:17;;;;;;;1.55;1.48;;;;;;;12.86;54.80;103449.44;5088544;28;20074;-85
2022/03/26 08:33:46;;;;;;;0.28;0.28;;;;;;;12.98;54.71;103447.81;5090228;28;20039;-85
2022/03/26 08:36:14;;;;;;;0.43;0.43;;;;;;;13.06;54.72;103449.69;5088698;28;20020;-88
2022/03/26 08:38:41;;;;;;;0.25;0.25;;;;;;;13.17;54.72;103446.25;5084475;28;20077;-88
2022/03/26 08:41:07;;;;;;;1.65;1.55;;;;;;;13.23;54.88;103447.22;5085246;28;20024;-87
2022/03/26 08:43:33;;;;;;;1.45;1.38;;;;;;;13.32;54.82;103442.84;5087428;28;20120;-86
2022/03/26 08:46:00;;;;;;;0.40;0.40;;;;;;;13.43;54.31;103446.53;5095375;28;20023;-86
2022/03/26 08:48:29;;;;;;;0.25;0.25;;;;;;;13.53;54.34;103445.78;5098573;28;20115;-86
2022/03/26 08:50:55;;;;;;;0.60;0.60;;;;;;;13.69;53.59;103443.22;5098247;28;20035;-87
2022/03/26 08:53:21;;;;;;;1.25;0.65;;;;;;;13.83;53.72;103446.91;5094994;28;20035;-87
2022/03/26 08:55:47;;;;;;;0.40;0.40;;;;;;;13.99;53.57;103441.69;5094562;28;20036;-86
2022/03/26 08:58:14;;;;;;;0.82;0.82;;;;;;;14.12;53.14;103443.56;5092356;28;20487;-87
2022/03/26 09:00:40;;;;;;;2.58;2.25;;;;;;;14.26;53.10;103446.31;5092677;28;20060;-88
2022/03/26 09:03:06;;;;;;;0.10;0.10;;;;;;;14.37;52.97;103449.06;5096527;28;20020;-86
2022/03/26 09:05:36;;;;;;;0.47;0.47;;;;;;;14.54;52.79;103450.03;5092074;28;20028;-86
2022/03/26 09:08:03;;;;;;;0.75;0.75;;;;;;;14.68;52.09;103444.81;5090156;28;20024;-84
2022/03/26 09:10:29;;;;;;;0.25;0.25;;;;;;;14.82;51.80;103444.84;5102402;28;20069;-84
2022/03/26 09:12:56;;;;;;;1.17;1.15;;;;;;;14.95;51.71;103448.44;5100351;28;20073;-84
2022/03/26 09:15:22;;;;;;;1.27;1.27;;;;;;;15.08;51.50;103451.16;5095355;28;20032;-85
2022/03/26 09:17:48;;;;;;;0.80;0.80;;;;;;;15.21;51.54;103444.97;5099215;28;20562;-84
2022/03/26 09:20:14;;;;;;;0.63;0.45;;;;;;;15.32;51.13;103447.66;5084080;28;20051;-83
2022/03/26 09:22:41;;;;;;;0.22;0.22;;;;;;;15.44;51.62;103447.69;5094439;28;20036;-83
2022/03/26 09:25:08;;;;;;;0.00;0.00;;;;;;;15.53;50.91;103453.03;5097222;28;20084;-83
2022/03/26 09:27:39;;;;;;;0.70;0.70;;;;;;;15.66;50.34;103455.72;5096995;28;20118;-87
2022/03/26 09:30:06;;;;;;;3.97;3.22;;;;;;;15.73;50.34;103446.81;5094685;28;20032;-83
2022/03/26 09:32:35;;;;;;;0.17;0.17;;;;;;;15.83;49.93;103450.41;5091698;28;20040;-86
2022/03/26 09:35:01;;;;;;;0.08;0.08;;;;;;;15.94;49.79;103458.44;5086076;28;20035;-82
2022/03/26 09:37:27;;;;;;;2.20;2.10;;;;;;;16.04;48.61;103448.59;5090091;28;20073;-83
2022/03/26 09:39:54;;;;;;;0.20;0.20;;;;;;;16.13;49.46;103444.13;5099065;28;20035;-83
2022/03/26 09:42:23;;;;;;;2.28;1.25;;;;;;;16.27;49.50;103451.25;5096953;28;20021;-84
2022/03/26 09:44:50;;;;;;;1.80;1.65;;;;;;;16.36;47.92;103453.88;5088333;28;20660;-85
2022/03/26 09:47:16;;;;;;;1.55;1.45;;;;;;;16.47;49.11;103456.53;5095556;28;20048;-82
2022/03/26 09:49:43;;;;;;;1.10;0.63;;;;;;;16.59;48.97;103448.47;5083985;28;20032;-83
2022/03/26 09:52:09;;;;;;;2.40;2.20;;;;;;;16.67;47.73;103456.47;5089544;28;20040;-82
2022/03/26 09:54:36;;;;;;;1.05;1.05;;;;;;;16.73;47.74;103451.09;5091251;28;20149;-82
2022/03/26 09:57:04;;;;;;;0.70;0.52;;;;;;;16.85;48.26;103454.59;5109169;28;20030;-82
2022/03/26 09:59:31;;;;;;;0.80;0.80;;;;;;;16.92;47.71;103453.72;5089242;28;20036;-82
2022/03/26 10:01:57;;;;;;;1.38;1.13;;;;;;;17.04;47.33;103452.78;5086369;28;20036;-82
2022/03/26 10:04:26;;;;;;;0.40;0.40;;;;;;;17.14;47.72;103452.69;5083690;28;20040;-84
2022/03/26 10:06:56;;;;;;;1.45;1.42;;;;;;;17.21;45.54;103452.66;5089192;28;20039;-84
2022/03/26 10:12:21;;;;;;;1.10;1.05;;;;;;;17.42;46.52;103447.16;5095049;27;1202641;-77
2022/03/26 10:17:33;;;;;;;0.82;0.82;;;;;;;17.63;46.45;103445.19;5103500;27;20093;-77
2022/03/26 10:20:03;;;;;;;1.73;1.63;;;;;;;17.63;45.01;103450.56;5107959;28;20120;-77
2022/03/26 10:22:33;;;;;;;0.90;0.88;;;;;;;17.69;44.79;103445.16;5096655;28;20027;-77
2022/03/26 10:27:42;;;;;;;3.73;0.43;;;;;;;17.90;43.36;103441.41;5088301;27;1185352;-76
2022/03/26 10:30:10;;;;;;;2.50;1.90;;;;;;;17.98;43.73;103438.69;5116651;27;20027;-78
2022/03/26 10:32:39;;;;;;;2.05;1.02;;;;;;;18.10;44.59;103438.53;5099088;28;20389;-78
2022/03/26 10:35:08;;;;;;;0.10;0.10;;;;;;;18.19;43.67;103429.50;5096854;28;20088;-77
2022/03/26 10:37:58;;;;;;;4.43;1.33;;;;;;;18.42;44.64;103431.94;5102217;28;20032;-79
2022/03/26 10:40:39;;;;;;;0.70;0.70;;;;;;;18.47;43.11;103428.31;5105505;28;20121;-76
2022/03/26 10:45:51;;;;;;;0.20;0.20;;;;;;;18.59;43.13;103420.09;5068839;28;20900;-76
2022/03/26 10:48:25;;;;;;;2.08;0.93;;;;;;;18.67;41.89;103415.53;5070073;28;20453;-77
2022/03/26 10:53:38;;;;;;;0.47;0.47;;;;;;;18.84;41.03;103417.09;5111103;27;20380;-77
2022/03/26 10:56:07;;;;;;;0.52;0.52;;;;;;;18.90;41.80;103422.38;5110952;28;20456;-77
2022/03/26 10:58:35;;;;;;;0.30;0.30;;;;;;;18.96;39.54;103424.16;5110766;28;20048;-77
2022/03/26 11:01:02;;;;;;;1.88;1.23;;;;;;;19.04;40.80;103420.44;5109549;28;20304;-78
2022/03/26 11:03:29;;;;;;;0.28;0.28;;;;;;;19.07;37.37;103422.19;5110852;28;20386;-77
2022/03/26 11:05:57;;;;;;;1.50;1.23;;;;;;;19.18;39.86;103406.78;5111181;28;20023;-77
2022/03/26 11:08:24;;;;;;;2.42;2.25;;;;;;;19.26;40.09;103409.34;5110853;28;20028;-78
2022/03/26 11:10:55;;;;;;;0.98;0.93;;;;;;;19.32;38.92;103411.94;5109878;28;20040;-78
2022/03/26 11:13:26;;;;;;;5.22;0.90;;;;;;;19.41;37.25;103410.91;5111219;28;20031;-77
2022/03/26 11:15:57;;;;;;;0.52;0.52;;;;;;;19.47;38.70;103405.41;5111260;28;20064;-77
2022/03/26 11:21:47;;;;;;;9.77;1.90;;;;;;;19.76;38.02;103403.16;5071071;28;20374;-76
2022/03/26 11:24:35;;;;;;;2.65;2.45;;;;;;;19.80;37.66;103400.38;5049780;22;20045;-78
2022/03/26 11:32:44;;;;;;;1.58;1.48;;;;;;;19.95;36.41;103403.72;5070414;28;20402;-78
2022/03/26 11:35:14;;;;;;;2.92;2.15;;;;;;;20.02;36.79;103403.56;5072102;28;20078;-78
2022/03/26 11:37:57;;;;;;;1.95;1.85;;;;;;;20.21;36.72;103397.81;5074039;28;20136;-77
2022/03/26 11:52:25;;;;;;;5.55;2.95;;;;;;;20.73;35.96;103384.22;5137509;27;20114;-77
2022/03/26 11:55:16;;;;;;;2.83;2.63;;;;;;;20.81;35.16;103387.63;5136617;28;20031;-78
2022/03/26 11:57:42;;;;;;;3.08;1.38;;;;;;;20.87;35.24;103378.50;5131780;28;20027;-79
2022/03/26 12:00:17;;;;;;;1.35;1.20;;;;;;;20.92;34.62;103376.59;5132535;27;20194;-78
2022/03/26 12:02:53;;;;;;;1.10;1.05;;;;;;;21.03;34.93;103373.66;5129329;28;20031;-79
2022/03/26 12:08:17;;;;;;;1.10;1.00;;;;;;;21.05;34.22;103371.78;5132699;27;20416;-80